Terminal Aerodrome Forecast
Issued by NWS Bismarck, ND

Home | Current Version | Previous Version | Graphics & Text | Print | Product List | Glossary On
Versions: 1 2 3 4 5 6 7 8 9 10 11 12 13 14 15 16 17
000
FTUS43 KBIS 251100
TAFISN
TAF
KISN 251120Z 2512/2612 11007KT 2SM BR BKN015
     FM251500 11011KT P6SM SCT015 BKN030
     FM252200 14015G22KT P6SM VCSH SCT040 BKN060
     FM260200 18007KT 2SM SHRA OVC025=

USA.gov is the U.S. government's official web portal to all federal, state and local government web resources and services.